sensor_id;sensor_type;location;lat;lon;timestamp;pressure;altitude;pressure_sealevel;temperature;humidity
22775;BME280;11554;51.106;3.684;2022-12-18T00:00:00;102682.67000000001;;;-6.52;100.0
22775;BME280;11554;51.106;3.684;2022-12-18T00:05:00;102685.54999999999;;;-6.41;100.0
22775;BME280;11554;51.106;3.684;2022-12-18T00:10:00;102683.54;;;-6.41;100.0
22775;BME280;11554;51.106;3.684;2022-12-18T00:15:00;102671.12;;;-6.44;100.0
22775;BME280;11554;51.106;3.684;2022-12-18T00:20:00;102671.08;;;-6.34;100.0
22775;BME280;11554;51.106;3.684;2022-12-18T00:25:00;102674.39;;;-6.32;100.0
22775;BME280;11554;51.106;3.684;2022-12-18T00:30:00;102672.23;;;-6.31;100.0
22775;BME280;11554;51.106;3.684;2022-12-18T00:35:00;102669.75;;;-6.43;100.0
22775;BME280;11554;51.106;3.684;2022-12-18T00:40:00;102672.81;;;-6.57;100.0
22775;BME280;11554;51.106;3.684;2022-12-18T00:45:00;102673.33000000002;;;-6.77;100.0
22775;BME280;11554;51.106;3.684;2022-12-18T00:50:00;102671.31;;;-6.90;100.0
22775;BME280;11554;51.106;3.684;2022-12-18T00:55:00;102668.42;;;-6.93;100.0
22775;BME280;11554;51.106;3.684;2022-12-18T01:00:00;102671.11;;;-7.15;100.0
22775;BME280;11554;51.106;3.684;2022-12-18T01:05:00;102674.06000000001;;;-7.23;100.0
22775;BME280;11554;51.106;3.684;2022-12-18T01:10:00;102667.35;;;-7.26;100.0
22775;BME280;11554;51.106;3.684;2022-12-18T01:15:00;102667.04;;;-7.41;100.0
22775;BME280;11554;51.106;3.684;2022-12-18T01:20:00;102674.17;;;-7.22;100.0
22775;BME280;11554;51.106;3.684;2022-12-18T01:25:00;102672.77999999998;;;-7.09;100.0
22775;BME280;11554;51.106;3.684;2022-12-18T01:30:00;102678.17;;;-7.05;100.0
22775;BME280;11554;51.106;3.684;2022-12-18T01:35:00;102678.38999999998;;;-7.00;100.0
22775;BME280;11554;51.106;3.684;2022-12-18T01:40:00;102674.67;;;-6.91;100.0
22775;BME280;11554;51.106;3.684;2022-12-18T01:45:03;102677.20999999999;;;-6.91;100.0
22775;BME280;11554;51.106;3.684;2022-12-18T01:50:01;102675.79000000001;;;-7.02;100.0
22775;BME280;11554;51.106;3.684;2022-12-18T01:55:00;102681.14;;;-6.97;100.0
22775;BME280;11554;51.106;3.684;2022-12-18T02:00:01;102674.06000000001;;;-6.85;100.0
22775;BME280;11554;51.106;3.684;2022-12-18T02:05:00;102670.23999999999;;;-6.89;100.0
22775;BME280;11554;51.106;3.684;2022-12-18T02:10:02;102664.22;;;-7.01;100.0
22775;BME280;11554;51.106;3.684;2022-12-18T02:15:02;102652.57999999999;;;-7.06;100.0
22775;BME280;11554;51.106;3.684;2022-12-18T02:20:02;102647.42000000001;;;-7.25;100.0
22775;BME280;11554;51.106;3.684;2022-12-18T02:25:05;102641.59;;;-7.43;100.0
22775;BME280;11554;51.106;3.684;2022-12-18T02:30:00;102628.28;;;-7.45;100.0
22775;BME280;11554;51.106;3.684;2022-12-18T02:35:00;102618.3;;;-7.22;100.0
22775;BME280;11554;51.106;3.684;2022-12-18T02:40:00;102614.60999999999;;;-7.11;100.0
22775;BME280;11554;51.106;3.684;2022-12-18T02:45:00;102607.51000000001;;;-7.05;100.0
22775;BME280;11554;51.106;3.684;2022-12-18T02:50:02;102607.03000000001;;;-7.07;100.0
22775;BME280;11554;51.106;3.684;2022-12-18T02:55:03;102604.52;;;-7.15;100.0
22775;BME280;11554;51.106;3.684;2022-12-18T03:00:01;102612.71999999999;;;-7.20;100.0
22775;BME280;11554;51.106;3.684;2022-12-18T03:05:01;102617.68999999999;;;-7.34;100.0
22775;BME280;11554;51.106;3.684;2022-12-18T03:10:00;102619.35;;;-7.33;100.0
22775;BME280;11554;51.106;3.684;2022-12-18T03:15:01;102619.18000000001;;;-7.43;100.0
22775;BME280;11554;51.106;3.684;2022-12-18T03:20:02;102619.62000000001;;;-7.47;100.0
22775;BME280;11554;51.106;3.684;2022-12-18T03:25:00;102616.68999999999;;;-7.50;100.0
22775;BME280;11554;51.106;3.684;2022-12-18T03:30:01;102611.65000000001;;;-7.50;100.0
22775;BME280;11554;51.106;3.684;2022-12-18T03:35:01;102619.54000000001;;;-7.54;100.0
22775;BME280;11554;51.106;3.684;2022-12-18T03:40:00;102615.31;;;-7.56;100.0
22775;BME280;11554;51.106;3.684;2022-12-18T03:45:02;102615.27;;;-7.55;100.0
22775;BME280;11554;51.106;3.684;2022-12-18T03:50:04;102609.86;;;-7.54;100.0
22775;BME280;11554;51.106;3.684;2022-12-18T03:55:00;102613.67;;;-7.50;100.0
22775;BME280;11554;51.106;3.684;2022-12-18T04:00:01;102619.09000000001;;;-7.57;100.0
22775;BME280;11554;51.106;3.684;2022-12-18T04:05:01;102615.14;;;-7.61;100.0
22775;BME280;11554;51.106;3.684;2022-12-18T04:10:00;102610.66;;;-7.69;100.0
22775;BME280;11554;51.106;3.684;2022-12-18T04:15:00;102603.67000000001;;;-7.54;100.0
22775;BME280;11554;51.106;3.684;2022-12-18T04:20:00;102593.66;;;-7.39;100.0
22775;BME280;11554;51.106;3.684;2022-12-18T04:25:00;102602.8;;;-7.30;100.0
22775;BME280;11554;51.106;3.684;2022-12-18T04:30:00;102597.8;;;-7.27;100.0
22775;BME280;11554;51.106;3.684;2022-12-18T04:35:00;102589.33;;;-7.29;100.0
22775;BME280;11554;51.106;3.684;2022-12-18T04:40:00;102591.00000000001;;;-7.35;100.0
22775;BME280;11554;51.106;3.684;2022-12-18T04:45:00;102603.65999999999;;;-7.36;100.0
22775;BME280;11554;51.106;3.684;2022-12-18T04:50:00;102600.37999999999;;;-7.37;100.0
22775;BME280;11554;51.106;3.684;2022-12-18T04:55:00;102594.95999999999;;;-7.34;100.0
22775;BME280;11554;51.106;3.684;2022-12-18T05:00:00;102598.20999999999;;;-7.44;100.0
22775;BME280;11554;51.106;3.684;2022-12-18T05:05:00;102597.56;;;-7.53;100.0
22775;BME280;11554;51.106;3.684;2022-12-18T05:10:00;102588.85;;;-7.52;100.0
22775;BME280;11554;51.106;3.684;2022-12-18T05:15:03;102581.09;;;-7.56;100.0
22775;BME280;11554;51.106;3.684;2022-12-18T05:20:00;102583.08;;;-7.60;100.0
22775;BME280;11554;51.106;3.684;2022-12-18T05:25:00;102588.13;;;-7.69;100.0
22775;BME280;11554;51.106;3.684;2022-12-18T05:30:00;102580.31000000001;;;-7.78;100.0
22775;BME280;11554;51.106;3.684;2022-12-18T05:35:00;102597.64;;;-7.95;100.0
22775;BME280;11554;51.106;3.684;2022-12-18T05:40:00;102607.65;;;-8.10;100.0
22775;BME280;11554;51.106;3.684;2022-12-18T05:45:00;102613.43999999999;;;-8.15;100.0
22775;BME280;11554;51.106;3.684;2022-12-18T05:50:00;102611.43;;;-8.14;100.0
22775;BME280;11554;51.106;3.684;2022-12-18T05:55:00;102591.43999999999;;;-7.96;100.0
22775;BME280;11554;51.106;3.684;2022-12-18T06:00:00;102595.20999999999;;;-7.71;100.0
22775;BME280;11554;51.106;3.684;2022-12-18T06:05:00;102576.61;;;-7.42;100.0
22775;BME280;11554;51.106;3.684;2022-12-18T06:10:00;102566.11;;;-7.32;100.0
22775;BME280;11554;51.106;3.684;2022-12-18T06:15:00;102563.95;;;-7.21;100.0
22775;BME280;11554;51.106;3.684;2022-12-18T06:20:00;102564.27;;;-7.09;100.0
22775;BME280;11554;51.106;3.684;2022-12-18T06:25:00;102545.0;;;-7.12;100.0
22775;BME280;11554;51.106;3.684;2022-12-18T06:30:00;102540.00000000001;;;-7.11;100.0
22775;BME280;11554;51.106;3.684;2022-12-18T06:35:00;102546.73;;;-7.02;100.0
22775;BME280;11554;51.106;3.684;2022-12-18T06:40:00;102540.69;;;-7.03;100.0
22775;BME280;11554;51.106;3.684;2022-12-18T06:45:00;102518.95999999999;;;-7.00;100.0
22775;BME280;11554;51.106;3.684;2022-12-18T06:50:00;102515.31999999999;;;-7.04;100.0
22775;BME280;11554;51.106;3.684;2022-12-18T06:55:00;102510.43999999999;;;-6.91;100.0
22775;BME280;11554;51.106;3.684;2022-12-18T07:00:00;102493.92;;;-6.91;100.0
22775;BME280;11554;51.106;3.684;2022-12-18T07:05:00;102487.57;;;-6.88;100.0
22775;BME280;11554;51.106;3.684;2022-12-18T07:10:00;102483.56000000001;;;-6.83;100.0
22775;BME280;11554;51.106;3.684;2022-12-18T07:15:00;102469.47;;;-6.74;100.0
22775;BME280;11554;51.106;3.684;2022-12-18T07:20:00;102457.28;;;-6.60;100.0
22775;BME280;11554;51.106;3.684;2022-12-18T07:25:00;102447.19;;;-6.65;100.0
22775;BME280;11554;51.106;3.684;2022-12-18T07:30:00;102433.26;;;-6.61;100.0
22775;BME280;11554;51.106;3.684;2022-12-18T07:35:00;102436.35999999999;;;-6.63;100.0
22775;BME280;11554;51.106;3.684;2022-12-18T07:40:00;102437.94;;;-6.61;100.0
22775;BME280;11554;51.106;3.684;2022-12-18T07:45:00;102438.28000000001;;;-6.60;100.0
22775;BME280;11554;51.106;3.684;2022-12-18T07:50:00;102448.31999999999;;;-6.59;100.0
22775;BME280;11554;51.106;3.684;2022-12-18T07:55:00;102421.73;;;-6.61;100.0
22775;BME280;11554;51.106;3.684;2022-12-18T08:00:00;102424.37999999999;;;-6.58;100.0
22775;BME280;11554;51.106;3.684;2022-12-18T08:05:00;102437.51999999999;;;-6.57;100.0
22775;BME280;11554;51.106;3.684;2022-12-18T08:10:00;102425.48999999999;;;-6.55;100.0
22775;BME280;11554;51.106;3.684;2022-12-18T08:15:00;102436.45;;;-6.58;100.0
22775;BME280;11554;51.106;3.684;2022-12-18T08:20:00;102438.70999999999;;;-6.50;100.0
22775;BME280;11554;51.106;3.684;2022-12-18T08:25:00;102449.57999999999;;;-6.39;100.0
22775;BME280;11554;51.106;3.684;2022-12-18T08:30:00;102448.29;;;-6.29;100.0
22775;BME280;11554;51.106;3.684;2022-12-18T08:35:00;102437.01000000001;;;-6.22;100.0
22775;BME280;11554;51.106;3.684;2022-12-18T08:40:00;102431.76000000001;;;-6.11;100.0
22775;BME280;11554;51.106;3.684;2022-12-18T08:45:00;102436.79;;;-6.02;100.0
22775;BME280;11554;51.106;3.684;2022-12-18T08:50:00;102432.98;;;-5.95;100.0
22775;BME280;11554;51.106;3.684;2022-12-18T08:55:00;102428.53;;;-5.87;100.0
22775;BME280;11554;51.106;3.684;2022-12-18T09:00:00;102421.61000000002;;;-5.78;100.0
22775;BME280;11554;51.106;3.684;2022-12-18T09:05:00;102438.23;;;-5.65;100.0
22775;BME280;11554;51.106;3.684;2022-12-18T09:10:00;102422.49999999999;;;-5.55;100.0
22775;BME280;11554;51.106;3.684;2022-12-18T09:15:00;102421.77999999998;;;-5.45;100.0
22775;BME280;11554;51.106;3.684;2022-12-18T09:20:00;102418.81000000001;;;-5.36;100.0
22775;BME280;11554;51.106;3.684;2022-12-18T09:25:00;102418.63;;;-5.30;100.0
22775;BME280;11554;51.106;3.684;2022-12-18T09:30:00;102411.87;;;-5.19;100.0
22775;BME280;11554;51.106;3.684;2022-12-18T09:35:00;102401.4;;;-5.08;100.0
22775;BME280;11554;51.106;3.684;2022-12-18T09:40:00;102406.91999999998;;;-4.93;100.0
22775;BME280;11554;51.106;3.684;2022-12-18T09:45:00;102391.35;;;-4.79;100.0
22775;BME280;11554;51.106;3.684;2022-12-18T09:50:01;102379.94;;;-4.72;100.0
22775;BME280;11554;51.106;3.684;2022-12-18T09:55:01;102378.59;;;-4.56;100.0
22775;BME280;11554;51.106;3.684;2022-12-18T10:00:03;102368.95;;;-4.45;100.0
22775;BME280;11554;51.106;3.684;2022-12-18T10:05:02;102366.95999999999;;;-4.33;100.0
22775;BME280;11554;51.106;3.684;2022-12-18T10:10:01;102353.12;;;-4.29;100.0
22775;BME280;11554;51.106;3.684;2022-12-18T10:15:01;102350.16;;;-4.27;100.0
22775;BME280;11554;51.106;3.684;2022-12-18T10:20:01;102357.9;;;-4.21;100.0
22775;BME280;11554;51.106;3.684;2022-12-18T10:25:01;102360.70999999999;;;-4.17;100.0
22775;BME280;11554;51.106;3.684;2022-12-18T10:30:01;102353.28;;;-4.11;100.0
22775;BME280;11554;51.106;3.684;2022-12-18T10:35:00;102352.89;;;-4.07;100.0
22775;BME280;11554;51.106;3.684;2022-12-18T10:40:09;102347.79999999999;;;-4.05;100.0
22775;BME280;11554;51.106;3.684;2022-12-18T10:45:01;102341.53;;;-4.04;100.0
22775;BME280;11554;51.106;3.684;2022-12-18T10:50:00;102343.42;;;-3.97;100.0
22775;BME280;11554;51.106;3.684;2022-12-18T10:55:01;102339.31;;;-3.87;100.0
22775;BME280;11554;51.106;3.684;2022-12-18T11:00:11;102322.79999999999;;;-3.82;100.0
22775;BME280;11554;51.106;3.684;2022-12-18T11:05:00;102320.51;;;-3.81;100.0
22775;BME280;11554;51.106;3.684;2022-12-18T11:10:00;102321.62;;;-3.73;100.0
22775;BME280;11554;51.106;3.684;2022-12-18T11:15:00;102317.33;;;-3.67;100.0
22775;BME280;11554;51.106;3.684;2022-12-18T11:20:00;102302.23;;;-3.59;100.0
22775;BME280;11554;51.106;3.684;2022-12-18T11:25:01;102295.03;;;-3.51;100.0
22775;BME280;11554;51.106;3.684;2022-12-18T11:30:07;102302.29000000001;;;-3.43;100.0
22775;BME280;11554;51.106;3.684;2022-12-18T11:35:02;102296.73;;;-3.33;100.0
22775;BME280;11554;51.106;3.684;2022-12-18T11:40:01;102290.03;;;-3.23;100.0
22775;BME280;11554;51.106;3.684;2022-12-18T11:45:01;102279.39;;;-3.15;100.0
22775;BME280;11554;51.106;3.684;2022-12-18T11:50:00;102277.26;;;-3.03;100.0
22775;BME280;11554;51.106;3.684;2022-12-18T11:55:00;102275.66;;;-2.90;100.0
22775;BME280;11554;51.106;3.684;2022-12-18T12:00:02;102266.97;;;-2.76;100.0
22775;BME280;11554;51.106;3.684;2022-12-18T12:05:02;102262.39;;;-2.62;100.0
22775;BME280;11554;51.106;3.684;2022-12-18T12:10:02;102243.12999999999;;;-2.53;100.0
22775;BME280;11554;51.106;3.684;2022-12-18T12:15:02;102245.22;;;-2.37;100.0
22775;BME280;11554;51.106;3.684;2022-12-18T12:20:02;102238.2;;;-2.30;100.0
22775;BME280;11554;51.106;3.684;2022-12-18T12:25:04;102236.51999999999;;;-2.20;100.0
22775;BME280;11554;51.106;3.684;2022-12-18T12:30:02;102235.69;;;-2.09;100.0
22775;BME280;11554;51.106;3.684;2022-12-18T12:35:04;102225.92;;;-2.00;100.0
22775;BME280;11554;51.106;3.684;2022-12-18T12:40:00;102209.61;;;-1.93;100.0
22775;BME280;11554;51.106;3.684;2022-12-18T12:45:00;102217.74;;;-1.85;100.0
22775;BME280;11554;51.106;3.684;2022-12-18T12:50:01;102203.67;;;-1.80;100.0
22775;BME280;11554;51.106;3.684;2022-12-18T12:55:00;102210.36;;;-1.74;100.0
22775;BME280;11554;51.106;3.684;2022-12-18T13:00:01;102206.97;;;-1.70;100.0
22775;BME280;11554;51.106;3.684;2022-12-18T13:05:01;102192.62999999999;;;-1.71;100.0
22775;BME280;11554;51.106;3.684;2022-12-18T13:20:04;102191.08;;;-1.70;100.0
22775;BME280;11554;51.106;3.684;2022-12-18T13:25:00;102190.48;;;-1.69;100.0
22775;BME280;11554;51.106;3.684;2022-12-18T13:30:00;102179.17;;;-1.71;100.0
22775;BME280;11554;51.106;3.684;2022-12-18T13:40:00;102171.08;;;-1.75;100.0
22775;BME280;11554;51.106;3.684;2022-12-18T13:45:00;102161.31;;;-1.76;100.0
22775;BME280;11554;51.106;3.684;2022-12-18T13:50:00;102153.53;;;-1.75;100.0
22775;BME280;11554;51.106;3.684;2022-12-18T13:55:01;102156.14;;;-1.76;100.0
22775;BME280;11554;51.106;3.684;2022-12-18T14:05:00;102133.56;;;-1.81;100.0
22775;BME280;11554;51.106;3.684;2022-12-18T14:10:00;102127.29000000001;;;-1.81;100.0
22775;BME280;11554;51.106;3.684;2022-12-18T14:15:00;102114.97;;;-1.81;100.0
22775;BME280;11554;51.106;3.684;2022-12-18T14:20:00;102101.14;;;-1.80;100.0
22775;BME280;11554;51.106;3.684;2022-12-18T14:25:05;102092.38;;;-1.79;100.0
22775;BME280;11554;51.106;3.684;2022-12-18T14:30:00;102087.08;;;-1.77;100.0
22775;BME280;11554;51.106;3.684;2022-12-18T14:35:00;102075.62000000001;;;-1.80;100.0
22775;BME280;11554;51.106;3.684;2022-12-18T14:40:00;102070.45000000001;;;-1.80;100.0
22775;BME280;11554;51.106;3.684;2022-12-18T14:50:00;102068.42;;;-1.80;100.0
22775;BME280;11554;51.106;3.684;2022-12-18T14:55:00;102065.01;;;-1.81;100.0
22775;BME280;11554;51.106;3.684;2022-12-18T15:00:03;102063.05;;;-1.82;100.0
22775;BME280;11554;51.106;3.684;2022-12-18T15:05:00;102061.51;;;-1.83;100.0
22775;BME280;11554;51.106;3.684;2022-12-18T15:10:01;102074.34;;;-1.85;100.0
22775;BME280;11554;51.106;3.684;2022-12-18T15:15:00;102062.01999999999;;;-1.86;100.0
22775;BME280;11554;51.106;3.684;2022-12-18T15:20:01;102064.15;;;-1.87;100.0
22775;BME280;11554;51.106;3.684;2022-12-18T15:25:00;102064.79000000001;;;-1.87;100.0
22775;BME280;11554;51.106;3.684;2022-12-18T15:30:01;102056.09;;;-1.86;100.0
22775;BME280;11554;51.106;3.684;2022-12-18T15:35:02;102060.47;;;-1.88;100.0
22775;BME280;11554;51.106;3.684;2022-12-18T15:40:00;102055.56;;;-1.86;100.0
22775;BME280;11554;51.106;3.684;2022-12-18T15:45:00;102055.87000000001;;;-1.86;100.0
22775;BME280;11554;51.106;3.684;2022-12-18T15:50:00;102043.1;;;-1.84;100.0
22775;BME280;11554;51.106;3.684;2022-12-18T15:55:00;102043.69;;;-1.83;100.0
22775;BME280;11554;51.106;3.684;2022-12-18T16:00:00;102042.28;;;-1.82;100.0
22775;BME280;11554;51.106;3.684;2022-12-18T16:05:00;102035.79999999999;;;-1.79;100.0
22775;BME280;11554;51.106;3.684;2022-12-18T16:10:00;102034.33;;;-1.76;100.0
22775;BME280;11554;51.106;3.684;2022-12-18T16:15:00;102037.0;;;-1.76;100.0
22775;BME280;11554;51.106;3.684;2022-12-18T16:20:00;102023.25;;;-1.73;100.0
22775;BME280;11554;51.106;3.684;2022-12-18T16:25:00;102019.45;;;-1.71;100.0
22775;BME280;11554;51.106;3.684;2022-12-18T16:30:00;102016.11;;;-1.67;100.0
22775;BME280;11554;51.106;3.684;2022-12-18T16:35:00;102009.77;;;-1.62;100.0
22775;BME280;11554;51.106;3.684;2022-12-18T16:40:00;102001.29;;;-1.60;100.0
22775;BME280;11554;51.106;3.684;2022-12-18T16:45:00;102002.22;;;-1.55;100.0
22775;BME280;11554;51.106;3.684;2022-12-18T16:50:00;102003.59;;;-1.53;100.0
22775;BME280;11554;51.106;3.684;2022-12-18T16:55:00;102003.47;;;-1.48;100.0
22775;BME280;11554;51.106;3.684;2022-12-18T17:00:00;101997.22;;;-1.42;100.0
22775;BME280;11554;51.106;3.684;2022-12-18T17:05:00;101996.33;;;-1.37;100.0
22775;BME280;11554;51.106;3.684;2022-12-18T17:10:00;101992.42;;;-1.32;100.0
22775;BME280;11554;51.106;3.684;2022-12-18T17:15:00;101990.83;;;-1.29;100.0
22775;BME280;11554;51.106;3.684;2022-12-18T17:20:00;101995.25;;;-1.27;100.0
22775;BME280;11554;51.106;3.684;2022-12-18T17:25:00;101997.02;;;-1.24;100.0
22775;BME280;11554;51.106;3.684;2022-12-18T17:30:00;102000.03;;;-1.21;100.0
22775;BME280;11554;51.106;3.684;2022-12-18T17:35:00;102000.49;;;-1.18;100.0
22775;BME280;11554;51.106;3.684;2022-12-18T17:40:00;101996.13;;;-1.16;100.0
22775;BME280;11554;51.106;3.684;2022-12-18T17:45:00;101994.55;;;-1.14;100.0
22775;BME280;11554;51.106;3.684;2022-12-18T17:50:00;101990.48;;;-1.13;100.0
22775;BME280;11554;51.106;3.684;2022-12-18T17:55:00;101979.88;;;-1.10;100.0
22775;BME280;11554;51.106;3.684;2022-12-18T18:00:00;101976.62;;;-1.07;100.0
22775;BME280;11554;51.106;3.684;2022-12-18T18:05:00;101978.59;;;-1.06;100.0
22775;BME280;11554;51.106;3.684;2022-12-18T18:10:00;101974.44;;;-1.03;100.0
22775;BME280;11554;51.106;3.684;2022-12-18T18:15:00;101984.26;;;-1.01;100.0
22775;BME280;11554;51.106;3.684;2022-12-18T18:20:00;101989.79000000001;;;-1.01;100.0
22775;BME280;11554;51.106;3.684;2022-12-18T18:25:00;101999.93;;;-0.98;100.0
22775;BME280;11554;51.106;3.684;2022-12-18T18:30:00;102000.81;;;-0.96;100.0
22775;BME280;11554;51.106;3.684;2022-12-18T18:35:00;102002.98;;;-0.95;100.0
22775;BME280;11554;51.106;3.684;2022-12-18T18:40:00;102002.38;;;-0.94;100.0
22775;BME280;11554;51.106;3.684;2022-12-18T18:45:00;101995.56;;;-0.91;100.0
22775;BME280;11554;51.106;3.684;2022-12-18T18:50:00;101994.51000000001;;;-0.89;100.0
22775;BME280;11554;51.106;3.684;2022-12-18T18:55:00;101993.11;;;-0.88;100.0
22775;BME280;11554;51.106;3.684;2022-12-18T19:00:00;101985.69;;;-0.85;100.0
22775;BME280;11554;51.106;3.684;2022-12-18T19:05:00;101981.92;;;-0.83;100.0
22775;BME280;11554;51.106;3.684;2022-12-18T19:10:00;101969.76;;;-0.80;100.0
22775;BME280;11554;51.106;3.684;2022-12-18T19:15:00;101970.64;;;-0.79;100.0
22775;BME280;11554;51.106;3.684;2022-12-18T19:20:00;101962.18000000001;;;-0.74;100.0
22775;BME280;11554;51.106;3.684;2022-12-18T19:25:00;101953.44;;;-0.71;100.0
22775;BME280;11554;51.106;3.684;2022-12-18T19:30:00;101945.65;;;-0.69;100.0
22775;BME280;11554;51.106;3.684;2022-12-18T19:35:00;101938.06;;;-0.66;100.0
22775;BME280;11554;51.106;3.684;2022-12-18T19:40:00;101934.93999999999;;;-0.64;100.0
22775;BME280;11554;51.106;3.684;2022-12-18T19:45:00;101937.73;;;-0.61;100.0
22775;BME280;11554;51.106;3.684;2022-12-18T19:50:00;101941.28;;;-0.55;100.0
22775;BME280;11554;51.106;3.684;2022-12-18T19:55:00;101936.51999999999;;;-0.52;100.0
22775;BME280;11554;51.106;3.684;2022-12-18T20:00:00;101918.40999999999;;;-0.50;100.0
22775;BME280;11554;51.106;3.684;2022-12-18T20:05:00;101905.62999999999;;;-0.46;100.0
22775;BME280;11554;51.106;3.684;2022-12-18T20:10:00;101902.59;;;-0.44;100.0
22775;BME280;11554;51.106;3.684;2022-12-18T20:15:00;101892.46;;;-0.40;100.0
22775;BME280;11554;51.106;3.684;2022-12-18T20:20:00;101888.2;;;-0.40;100.0
22775;BME280;11554;51.106;3.684;2022-12-18T20:25:00;101888.47;;;-0.35;100.0
22775;BME280;11554;51.106;3.684;2022-12-18T20:30:00;101882.2;;;-0.30;100.0
22775;BME280;11554;51.106;3.684;2022-12-18T20:35:00;101865.38;;;-0.29;100.0
22775;BME280;11554;51.106;3.684;2022-12-18T20:40:00;101850.86;;;-0.25;100.0
22775;BME280;11554;51.106;3.684;2022-12-18T20:45:00;101837.37999999999;;;-0.22;100.0
22775;BME280;11554;51.106;3.684;2022-12-18T20:50:00;101828.17;;;-0.15;100.0
22775;BME280;11554;51.106;3.684;2022-12-18T20:55:00;101827.87;;;-0.07;100.0
22775;BME280;11554;51.106;3.684;2022-12-18T21:00:00;101815.41;;;-0.01;100.0
22775;BME280;11554;51.106;3.684;2022-12-18T21:05:00;101801.26000000001;;;0.05;100.0
22775;BME280;11554;51.106;3.684;2022-12-18T21:10:00;101799.89;;;0.08;100.0
22775;BME280;11554;51.106;3.684;2022-12-18T21:15:00;101782.11;;;0.16;100.0
22775;BME280;11554;51.106;3.684;2022-12-18T21:20:00;101772.26000000001;;;0.26;100.0
22775;BME280;11554;51.106;3.684;2022-12-18T21:25:00;101768.7;;;0.32;100.0
22775;BME280;11554;51.106;3.684;2022-12-18T21:30:00;101760.79999999999;;;0.34;100.0
22775;BME280;11554;51.106;3.684;2022-12-18T21:35:00;101765.19;;;0.39;100.0
22775;BME280;11554;51.106;3.684;2022-12-18T21:40:00;101755.19;;;0.45;100.0
22775;BME280;11554;51.106;3.684;2022-12-18T21:45:00;101754.86;;;0.50;100.0
22775;BME280;11554;51.106;3.684;2022-12-18T21:50:00;101736.55;;;0.57;100.0
22775;BME280;11554;51.106;3.684;2022-12-18T21:55:00;101734.27;;;0.65;100.0
22775;BME280;11554;51.106;3.684;2022-12-18T22:00:00;101725.2;;;0.77;100.0
22775;BME280;11554;51.106;3.684;2022-12-18T22:05:00;101731.66;;;0.77;100.0
22775;BME280;11554;51.106;3.684;2022-12-18T22:10:00;101725.3;;;0.84;100.0
22775;BME280;11554;51.106;3.684;2022-12-18T22:15:00;101709.20999999999;;;0.95;100.0
22775;BME280;11554;51.106;3.684;2022-12-18T22:20:00;101698.33;;;1.03;100.0
22775;BME280;11554;51.106;3.684;2022-12-18T22:25:00;101684.89;;;1.11;100.0
22775;BME280;11554;51.106;3.684;2022-12-18T22:30:00;101676.37;;;1.19;100.0
22775;BME280;11554;51.106;3.684;2022-12-18T22:35:00;101676.79000000001;;;1.31;100.0
22775;BME280;11554;51.106;3.684;2022-12-18T22:40:00;101670.61;;;1.42;100.0
22775;BME280;11554;51.106;3.684;2022-12-18T22:45:00;101663.58;;;1.47;100.0
22775;BME280;11554;51.106;3.684;2022-12-18T22:50:00;101665.09999999999;;;1.52;100.0
22775;BME280;11554;51.106;3.684;2022-12-18T22:55:00;101664.67;;;1.60;100.0
22775;BME280;11554;51.106;3.684;2022-12-18T23:00:00;101662.66;;;1.69;100.0
22775;BME280;11554;51.106;3.684;2022-12-18T23:05:00;101649.47;;;1.77;100.0
22775;BME280;11554;51.106;3.684;2022-12-18T23:10:00;101627.56000000001;;;1.83;100.0
22775;BME280;11554;51.106;3.684;2022-12-18T23:15:00;101611.7;;;1.89;100.0
22775;BME280;11554;51.106;3.684;2022-12-18T23:20:00;101614.58;;;1.99;100.0
22775;BME280;11554;51.106;3.684;2022-12-18T23:25:00;101611.5;;;2.06;100.0
22775;BME280;11554;51.106;3.684;2022-12-18T23:30:00;101624.92;;;2.13;100.0
22775;BME280;11554;51.106;3.684;2022-12-18T23:35:00;101610.19;;;2.22;100.0
22775;BME280;11554;51.106;3.684;2022-12-18T23:40:00;101596.56;;;2.25;100.0
22775;BME280;11554;51.106;3.684;2022-12-18T23:45:00;101587.7;;;2.29;100.0
22775;BME280;11554;51.106;3.684;2022-12-18T23:50:00;101589.43000000001;;;2.41;100.0
22775;BME280;11554;51.106;3.684;2022-12-18T23:55:00;101588.87;;;2.55;100.0
